createdAt,value
2019-05-20T00:01:50.677Z,17.87
2019-05-20T00:04:21.996Z,17.64
2019-05-20T00:06:53.101Z,17.64
2019-05-20T00:09:24.633Z,17.66
2019-05-20T00:11:55.881Z,17.65
2019-05-20T00:14:27.152Z,17.39
2019-05-20T00:16:58.245Z,17.18
2019-05-20T00:19:29.384Z,17.34
2019-05-20T00:22:00.634Z,17.18
2019-05-20T00:24:31.861Z,17.01
2019-05-20T00:27:03.844Z,17.02
2019-05-20T00:29:34.802Z,16.87
2019-05-20T00:32:06.229Z,16.96
2019-05-20T00:34:37.213Z,16.91
2019-05-20T00:37:08.289Z,17.05
2019-05-20T00:39:39.497Z,16.90
2019-05-20T00:42:10.537Z,17.00
2019-05-20T00:44:42.163Z,16.92
2019-05-20T00:47:13.876Z,17.05
2019-05-20T00:49:45.159Z,16.76
2019-05-20T00:52:16.617Z,16.65
2019-05-20T00:54:47.603Z,16.54
2019-05-20T00:57:18.599Z,16.61
2019-05-20T00:59:50.110Z,16.45
2019-05-20T01:02:21.087Z,16.49
2019-05-20T01:04:52.422Z,16.46
2019-05-20T01:07:23.441Z,16.45
2019-05-20T01:09:54.737Z,16.41
2019-05-20T01:12:25.711Z,16.37
2019-05-20T01:14:56.730Z,16.23
2019-05-20T01:17:27.695Z,16.43
2019-05-20T01:19:59.145Z,16.47
2019-05-20T01:22:30.140Z,16.29
2019-05-20T01:25:01.479Z,16.29
2019-05-20T01:27:32.479Z,16.28
2019-05-20T01:30:03.597Z,16.46
2019-05-20T01:32:37.240Z,16.46
2019-05-20T01:35:08.988Z,16.24
2019-05-20T01:37:39.998Z,16.19
2019-05-20T01:40:12.618Z,16.10
2019-05-20T01:42:43.634Z,16.22
2019-05-20T01:45:15.085Z,16.42
2019-05-20T01:47:47.482Z,16.42
2019-05-20T01:50:18.584Z,16.16
2019-05-20T01:52:50.154Z,16.20
2019-05-20T01:55:21.376Z,16.08
2019-05-20T01:57:52.487Z,15.94
2019-05-20T02:00:23.582Z,16.05
2019-05-20T02:02:54.644Z,16.04
2019-05-20T02:05:25.627Z,16.09
2019-05-20T02:07:57.670Z,16.25
2019-05-20T02:10:29.003Z,15.87
2019-05-20T02:12:59.987Z,15.92
2019-05-20T02:15:37.472Z,15.79
2019-05-20T02:18:08.720Z,15.76
2019-05-20T02:20:39.710Z,15.73
2019-05-20T02:23:14.819Z,15.70
2019-05-20T02:25:47.106Z,15.90
2019-05-20T02:28:18.335Z,15.81
2019-05-20T02:30:49.567Z,15.74
2019-05-20T02:35:54.771Z,15.86
2019-05-20T02:38:26.817Z,15.89
2019-05-20T02:40:58.466Z,15.89
2019-05-20T02:43:29.978Z,15.73
2019-05-20T02:46:02.184Z,15.54
2019-05-20T02:48:34.279Z,15.54
2019-05-20T02:51:06.166Z,15.59
2019-05-20T02:53:37.998Z,15.51
2019-05-20T02:56:10.008Z,15.41
2019-05-20T02:58:42.984Z,15.48
2019-05-20T03:01:14.673Z,15.30
2019-05-20T03:03:46.887Z,15.25
2019-05-20T03:06:19.682Z,15.30
2019-05-20T03:08:51.634Z,15.51
2019-05-20T03:11:23.241Z,15.38
2019-05-20T03:13:54.877Z,15.40
2019-05-20T03:16:27.033Z,15.47
2019-05-20T03:18:58.855Z,15.38
2019-05-20T03:21:31.141Z,15.31
2019-05-20T03:24:03.000Z,15.31
2019-05-20T03:26:35.096Z,15.41
2019-05-20T03:29:07.016Z,15.48
2019-05-20T03:31:38.949Z,15.38
2019-05-20T03:34:38.725Z,15.14
2019-05-20T03:36:44.781Z,15.28
2019-05-20T03:39:16.776Z,15.37
2019-05-20T03:41:50.197Z,15.57
2019-05-20T03:44:22.182Z,15.45
2019-05-20T03:46:54.143Z,15.37
2019-05-20T03:49:26.520Z,15.17
2019-05-20T03:51:58.325Z,15.14
2019-05-20T03:54:30.324Z,15.21
2019-05-20T03:57:02.125Z,15.16
2019-05-20T03:59:33.803Z,15.09
2019-05-20T04:02:05.537Z,15.22
2019-05-20T04:04:37.566Z,15.20
2019-05-20T04:07:11.311Z,15.33
2019-05-20T04:09:43.186Z,15.49
2019-05-20T04:12:15.089Z,15.71
2019-05-20T04:14:47.278Z,15.64
2019-05-20T04:17:19.465Z,15.56
2019-05-20T04:19:51.376Z,15.35
2019-05-20T04:22:23.344Z,15.35
2019-05-20T04:24:55.330Z,15.41
2019-05-20T04:27:27.310Z,15.45
2019-05-20T04:29:59.463Z,15.73
2019-05-20T04:32:31.425Z,15.64
2019-05-20T04:35:20.552Z,15.65
2019-05-20T04:37:36.786Z,15.64
2019-05-20T04:40:08.982Z,15.72
2019-05-20T04:42:40.780Z,15.52
2019-05-20T04:45:13.380Z,15.60
2019-05-20T04:47:45.185Z,15.50
2019-05-20T04:50:16.765Z,15.60
2019-05-20T04:52:48.507Z,15.51
2019-05-20T04:55:20.892Z,15.58
2019-05-20T04:57:52.983Z,15.67
2019-05-20T05:00:51.473Z,15.55
2019-05-20T05:03:23.861Z,15.64
2019-05-20T05:05:55.872Z,15.71
2019-05-20T05:08:27.221Z,15.72
2019-05-20T05:10:58.860Z,15.94
2019-05-20T05:13:32.075Z,15.88
2019-05-20T05:16:03.704Z,16.08
2019-05-20T05:18:35.643Z,16.09
2019-05-20T05:21:07.363Z,15.90
2019-05-20T05:23:38.829Z,15.93
2019-05-20T05:26:11.060Z,16.14
2019-05-20T05:28:42.717Z,15.90
2019-05-20T05:31:14.584Z,16.01
2019-05-20T05:33:46.474Z,16.12
2019-05-20T05:36:18.433Z,16.32
2019-05-20T05:38:50.883Z,16.17
2019-05-20T05:41:22.535Z,16.11
2019-05-20T05:43:54.729Z,16.27
2019-05-20T05:46:26.854Z,16.38
2019-05-20T05:48:59.214Z,16.57
2019-05-20T05:51:31.414Z,16.35
2019-05-20T05:54:02.708Z,16.48
2019-05-20T05:56:34.653Z,16.67
2019-05-20T05:59:06.187Z,16.76
2019-05-20T06:01:37.835Z,16.87
2019-05-20T06:04:09.675Z,17.14
2019-05-20T06:06:40.918Z,16.92
2019-05-20T06:09:12.857Z,16.82
2019-05-20T06:11:44.843Z,16.85
2019-05-20T06:14:16.719Z,16.86
2019-05-20T06:16:48.299Z,17.10
2019-05-20T06:19:20.064Z,17.20
2019-05-20T06:21:52.600Z,17.32
2019-05-20T06:24:23.951Z,17.50
2019-05-20T06:26:55.449Z,17.14
2019-05-20T06:29:27.503Z,17.23
2019-05-20T06:31:59.360Z,17.15
2019-05-20T06:34:30.985Z,17.30
2019-05-20T06:37:05.299Z,17.51
2019-05-20T06:39:36.950Z,17.57
2019-05-20T06:42:08.936Z,17.78
2019-05-20T06:44:52.188Z,17.97
2019-05-20T06:47:14.272Z,18.19
2019-05-20T06:49:46.162Z,18.14
2019-05-20T06:52:33.241Z,18.11
2019-05-20T06:54:51.093Z,18.18
2019-05-20T06:57:24.040Z,18.28
2019-05-20T06:59:56.522Z,18.08
2019-05-20T07:02:28.716Z,18.32
2019-05-20T07:05:00.040Z,18.54
2019-05-20T07:07:31.830Z,19.14
2019-05-20T07:10:03.429Z,18.93
2019-05-20T07:12:41.115Z,19.17
2019-05-20T07:15:09.641Z,19.29
2019-05-20T07:17:42.622Z,19.61
2019-05-20T07:20:15.925Z,19.52
2019-05-20T07:22:55.686Z,19.88
2019-05-20T07:25:21.599Z,19.63
2019-05-20T07:27:53.801Z,19.75
2019-05-20T07:30:25.395Z,20.02
2019-05-20T07:32:57.146Z,20.13
2019-05-20T07:35:31.009Z,20.64
2019-05-20T07:38:02.367Z,20.15
2019-05-20T07:40:33.924Z,20.14
2019-05-20T07:43:05.691Z,20.47
2019-05-20T07:45:37.800Z,20.59
2019-05-20T07:48:09.712Z,21.02
2019-05-20T07:50:40.846Z,20.84
2019-05-20T07:53:12.947Z,20.67
2019-05-20T07:55:57.082Z,20.78
2019-05-20T07:58:33.484Z,21.01
2019-05-20T08:01:03.300Z,20.60
2019-05-20T08:03:38.429Z,20.74
2019-05-20T08:06:08.649Z,20.85
2019-05-20T08:08:39.907Z,21.33
2019-05-20T08:11:11.490Z,21.24
2019-05-20T08:13:43.586Z,21.55
2019-05-20T08:16:14.727Z,21.17
2019-05-20T08:18:46.416Z,21.55
2019-05-20T08:21:18.121Z,21.92
2019-05-20T08:23:50.378Z,22.45
2019-05-20T08:26:22.377Z,22.12
2019-05-20T08:28:54.985Z,22.23
2019-05-20T08:31:27.084Z,21.94
2019-05-20T08:33:58.290Z,22.39
2019-05-20T08:36:30.252Z,21.92
2019-05-20T08:39:01.877Z,22.09
2019-05-20T08:41:35.277Z,22.28
2019-05-20T08:44:07.871Z,21.93
2019-05-20T08:46:39.157Z,21.69
2019-05-20T08:49:11.800Z,21.80
2019-05-20T08:51:43.689Z,21.51
2019-05-20T08:54:15.676Z,21.71
2019-05-20T08:56:49.260Z,21.46
2019-05-20T08:59:20.607Z,21.73
2019-05-20T09:01:52.430Z,21.26
2019-05-20T09:04:24.291Z,21.19
2019-05-20T09:06:56.091Z,21.60
2019-05-20T09:09:27.923Z,21.97
2019-05-20T09:12:01.611Z,21.75
2019-05-20T09:14:34.035Z,22.06
2019-05-20T09:17:06.267Z,22.61
2019-05-20T09:19:37.904Z,22.77
2019-05-20T09:22:11.014Z,23.40
2019-05-20T09:24:43.120Z,23.40
2019-05-20T09:27:14.555Z,23.23
2019-05-20T09:29:46.414Z,23.35
2019-05-20T09:32:18.275Z,23.37
2019-05-20T09:34:50.035Z,23.37
2019-05-20T09:37:21.475Z,23.07
2019-05-20T09:39:53.029Z,23.43
2019-05-20T09:42:26.262Z,23.81
2019-05-20T09:45:02.956Z,23.55
2019-05-20T09:47:31.598Z,23.49
2019-05-20T09:50:03.676Z,24.14
2019-05-20T09:52:35.776Z,24.15
2019-05-20T09:55:07.226Z,24.17
2019-05-20T09:57:38.809Z,23.64
2019-05-20T10:00:11.320Z,23.56
2019-05-20T10:02:43.212Z,23.23
2019-05-20T10:05:14.818Z,23.24
2019-05-20T10:07:46.416Z,23.46
2019-05-20T10:10:18.223Z,23.93
2019-05-20T10:12:50.024Z,24.05
2019-05-20T10:15:21.379Z,24.42
2019-05-20T10:17:53.306Z,23.42
2019-05-20T10:20:24.947Z,23.42
2019-05-20T10:22:56.252Z,23.88
2019-05-20T10:25:27.813Z,23.14
2019-05-20T10:28:00.183Z,23.62
2019-05-20T10:30:31.440Z,24.41
2019-05-20T10:33:03.300Z,24.56
2019-05-20T10:35:35.032Z,24.39
2019-05-20T10:38:06.738Z,24.26
2019-05-20T10:40:38.812Z,24.46
2019-05-20T10:43:10.410Z,25.10
2019-05-20T10:45:42.224Z,24.85
2019-05-20T10:48:14.208Z,24.80
2019-05-20T10:50:46.505Z,24.68
2019-05-20T10:53:17.753Z,24.48
2019-05-20T10:55:50.057Z,24.59
2019-05-20T10:58:22.186Z,24.68
2019-05-20T11:01:02.215Z,25.06
2019-05-20T11:03:27.489Z,25.63
2019-05-20T11:05:59.397Z,25.19
2019-05-20T11:08:31.620Z,25.26
2019-05-20T11:11:02.929Z,25.22
2019-05-20T11:13:34.304Z,25.73
2019-05-20T11:16:05.729Z,25.73
2019-05-20T11:18:37.581Z,26.75
2019-05-20T11:21:09.752Z,25.38
2019-05-20T11:23:41.920Z,26.34
2019-05-20T11:26:13.249Z,26.34
2019-05-20T11:28:45.179Z,27.12
2019-05-20T11:31:17.273Z,26.74
2019-05-20T11:33:49.132Z,27.21
2019-05-20T11:36:21.298Z,26.29
2019-05-20T11:38:53.576Z,25.87
2019-05-20T11:41:51.169Z,26.11
2019-05-20T11:43:58.833Z,26.37
2019-05-20T11:46:31.097Z,26.40
2019-05-20T11:49:02.135Z,27.00
2019-05-20T11:51:34.055Z,26.54
2019-05-20T11:54:06.061Z,27.15
2019-05-20T11:56:37.703Z,26.84
2019-05-20T11:59:09.389Z,27.25
2019-05-20T12:01:41.347Z,27.10
2019-05-20T12:04:13.467Z,27.20
2019-05-20T12:06:45.258Z,26.67
2019-05-20T12:09:17.030Z,26.25
2019-05-20T12:11:48.747Z,26.89
2019-05-20T12:14:20.323Z,26.58
2019-05-20T12:16:52.844Z,26.70
2019-05-20T12:19:24.631Z,27.04
2019-05-20T12:21:56.454Z,27.27
2019-05-20T12:24:29.011Z,27.33
2019-05-20T12:27:01.052Z,27.34
2019-05-20T12:29:33.140Z,26.74
2019-05-20T12:32:06.130Z,26.39
2019-05-20T12:34:37.976Z,25.59
2019-05-20T12:37:09.334Z,26.30
2019-05-20T12:39:41.507Z,26.59
2019-05-20T12:42:13.679Z,26.04
2019-05-20T12:44:45.310Z,26.73
2019-05-20T12:47:16.897Z,26.35
2019-05-20T12:49:48.708Z,25.70
2019-05-20T12:52:20.567Z,25.61
2019-05-20T12:55:06.665Z,25.95
2019-05-20T12:57:25.511Z,26.28
2019-05-20T12:59:57.216Z,26.12
2019-05-20T13:02:30.012Z,25.87
2019-05-20T13:05:02.238Z,25.58
2019-05-20T13:07:33.801Z,25.20
2019-05-20T13:10:26.003Z,24.98
2019-05-20T13:12:39.797Z,24.70
2019-05-20T13:15:12.882Z,24.83
2019-05-20T13:17:45.467Z,24.74
2019-05-20T13:20:17.727Z,24.80
2019-05-20T13:22:49.547Z,24.47
2019-05-20T13:25:21.627Z,24.75
2019-05-20T13:27:53.264Z,24.74
2019-05-20T13:30:25.571Z,25.02
2019-05-20T13:32:57.083Z,25.59
2019-05-20T13:35:28.629Z,25.63
2019-05-20T13:38:00.370Z,25.40
2019-05-20T13:40:45.673Z,25.24
2019-05-20T13:43:05.520Z,25.02
2019-05-20T13:45:37.130Z,24.58
2019-05-20T13:48:09.065Z,24.51
2019-05-20T13:50:41.024Z,24.33
2019-05-20T13:53:13.181Z,24.28
2019-05-20T13:55:44.946Z,23.95
2019-05-20T13:58:17.221Z,23.92
2019-05-20T14:00:48.867Z,23.88
2019-05-20T14:03:20.844Z,23.84
2019-05-20T14:05:54.024Z,23.51
2019-05-20T14:08:25.545Z,23.35
2019-05-20T14:11:04.158Z,23.11
2019-05-20T14:13:31.805Z,22.93
2019-05-20T14:16:03.413Z,22.61
2019-05-20T14:18:35.475Z,22.67
2019-05-20T14:21:07.853Z,22.55
2019-05-20T14:23:39.534Z,22.60
2019-05-20T14:26:12.034Z,22.85
2019-05-20T14:28:43.647Z,22.86
2019-05-20T14:31:19.595Z,22.83
2019-05-20T14:33:51.856Z,23.05
2019-05-20T14:36:38.594Z,23.33
2019-05-20T14:38:56.501Z,23.31
2019-05-20T14:41:28.153Z,23.63
2019-05-20T14:43:59.910Z,23.80
2019-05-20T14:46:33.014Z,23.73
2019-05-20T14:49:04.576Z,23.71
2019-05-20T14:51:36.675Z,23.55
2019-05-20T14:54:08.581Z,23.41
2019-05-20T14:56:40.470Z,23.34
2019-05-20T14:59:12.390Z,23.27
2019-05-20T15:01:43.978Z,23.31
2019-05-20T15:04:15.840Z,23.20
2019-05-20T15:06:47.647Z,23.07
2019-05-20T15:09:18.698Z,23.03
2019-05-20T15:11:50.774Z,23.09
2019-05-20T15:14:22.105Z,22.97
2019-05-20T15:16:54.140Z,23.13
2019-05-20T15:19:25.325Z,22.99
2019-05-20T15:21:57.004Z,22.95
2019-05-20T15:24:28.736Z,22.78
2019-05-20T15:27:01.519Z,22.70
2019-05-20T15:29:33.570Z,22.50
2019-05-20T15:32:06.421Z,22.59
2019-05-20T15:34:38.246Z,22.64
2019-05-20T15:37:11.411Z,22.50
2019-05-20T15:39:43.398Z,22.53
2019-05-20T15:42:14.670Z,22.48
2019-05-20T15:44:46.730Z,22.57
2019-05-20T15:47:19.898Z,22.57
2019-05-20T15:49:51.773Z,22.26
2019-05-20T15:52:23.946Z,22.46
2019-05-20T15:54:55.393Z,22.36
2019-05-20T15:57:27.618Z,22.25
2019-05-20T15:59:59.564Z,22.17
2019-05-20T16:02:32.030Z,22.16
2019-05-20T16:05:03.999Z,22.32
2019-05-20T16:07:35.975Z,22.37
2019-05-20T16:10:07.630Z,21.62
2019-05-20T16:12:39.673Z,21.29
2019-05-20T16:15:11.581Z,20.66
2019-05-20T16:17:47.700Z,20.18
2019-05-20T16:20:17.140Z,19.78
2019-05-20T16:22:49.243Z,19.68
2019-05-20T16:25:21.680Z,19.29
2019-05-20T16:27:53.026Z,18.73
2019-05-20T16:30:24.989Z,18.64
2019-05-20T16:32:56.591Z,18.58
2019-05-20T16:35:28.202Z,18.73
2019-05-20T16:38:00.147Z,18.66
2019-05-20T16:40:32.220Z,18.60
2019-05-20T16:43:04.900Z,18.78
2019-05-20T16:45:36.823Z,18.63
2019-05-20T16:48:08.291Z,18.70
2019-05-20T16:50:39.793Z,18.74
2019-05-20T16:53:11.218Z,18.70
2019-05-20T16:55:42.871Z,18.38
2019-05-20T16:58:15.639Z,18.42
2019-05-20T17:00:48.006Z,18.64
2019-05-20T17:03:20.310Z,18.81
2019-05-20T17:05:52.367Z,18.91
2019-05-20T17:08:24.456Z,18.68
2019-05-20T17:10:56.282Z,18.72
2019-05-20T17:13:28.254Z,18.81
2019-05-20T17:16:00.122Z,18.81
2019-05-20T17:18:31.791Z,18.81
2019-05-20T17:21:03.969Z,18.82
2019-05-20T17:23:35.781Z,18.90
2019-05-20T17:26:07.162Z,19.26
2019-05-20T17:28:39.522Z,19.46
2019-05-20T17:31:12.791Z,19.45
2019-05-20T17:33:44.269Z,19.22
2019-05-20T17:36:16.027Z,18.89
2019-05-20T17:38:48.123Z,18.57
2019-05-20T17:41:21.568Z,18.89
2019-05-20T17:43:54.207Z,18.53
2019-05-20T17:46:27.042Z,18.47
2019-05-20T17:48:59.718Z,18.52
2019-05-20T17:51:31.801Z,18.69
2019-05-20T17:54:03.800Z,18.50
2019-05-20T17:56:36.194Z,18.63
2019-05-20T17:59:08.176Z,18.59
2019-05-20T18:01:39.922Z,18.52
2019-05-20T18:04:11.523Z,18.52
2019-05-20T18:06:44.835Z,18.76
2019-05-20T18:09:16.770Z,18.56
2019-05-20T18:11:48.120Z,18.40
2019-05-20T18:14:21.142Z,17.88
2019-05-20T18:16:52.972Z,17.28
2019-05-20T18:19:24.876Z,17.45
2019-05-20T18:21:57.057Z,17.29
2019-05-20T18:24:28.983Z,17.51
2019-05-20T18:27:01.918Z,17.67
2019-05-20T18:29:33.771Z,17.36
2019-05-20T18:32:05.619Z,17.53
2019-05-20T18:34:37.229Z,17.44
2019-05-20T18:37:08.543Z,17.50
2019-05-20T18:39:39.870Z,17.08
2019-05-20T18:42:13.828Z,16.83
2019-05-20T18:44:46.271Z,16.99
2019-05-20T18:47:18.115Z,17.04
2019-05-20T18:49:49.826Z,17.36
2019-05-20T18:52:21.832Z,17.44
2019-05-20T18:54:54.039Z,17.31
2019-05-20T18:57:26.061Z,17.41
2019-05-20T18:59:57.712Z,17.22
2019-05-20T19:02:29.722Z,17.26
2019-05-20T19:05:03.675Z,17.24
2019-05-20T19:07:36.045Z,17.33
2019-05-20T19:10:08.119Z,17.33
2019-05-20T19:12:40.519Z,17.45
2019-05-20T19:15:12.763Z,17.53
2019-05-20T19:17:45.148Z,17.64
2019-05-20T19:20:17.100Z,17.57
2019-05-20T19:22:49.090Z,17.64
2019-05-20T19:25:20.329Z,17.63
2019-05-20T19:27:52.078Z,17.80
2019-05-20T19:30:24.010Z,17.86
2019-05-20T19:32:57.724Z,17.78
2019-05-20T19:35:29.355Z,17.71
2019-05-20T19:38:00.997Z,17.76
2019-05-20T19:40:32.692Z,17.85
2019-05-20T19:43:04.647Z,17.94
2019-05-20T19:45:36.394Z,17.95
2019-05-20T19:48:08.013Z,17.96
2019-05-20T19:50:39.716Z,18.01
2019-05-20T19:53:11.446Z,17.93
2019-05-20T19:55:43.301Z,17.96
2019-05-20T19:58:15.376Z,17.95
2019-05-20T20:00:48.746Z,17.97
2019-05-20T20:03:20.642Z,17.81
2019-05-20T20:05:52.944Z,17.94
2019-05-20T20:08:25.209Z,17.89
2019-05-20T20:10:58.917Z,17.89
2019-05-20T20:13:34.043Z,17.84
2019-05-20T20:16:04.585Z,17.84
2019-05-20T20:18:37.754Z,17.78
2019-05-20T20:21:11.028Z,17.81
2019-05-20T20:23:43.344Z,17.83
2019-05-20T20:26:16.635Z,17.89
2019-05-20T20:28:48.632Z,17.81
2019-05-20T20:31:20.973Z,17.76
2019-05-20T20:33:53.028Z,17.86
2019-05-20T20:36:24.892Z,17.62
2019-05-20T20:38:57.448Z,17.61
2019-05-20T20:41:29.719Z,17.57
2019-05-20T20:44:01.682Z,17.55
2019-05-20T20:46:33.856Z,17.61
2019-05-20T20:49:05.483Z,17.59
2019-05-20T20:51:37.212Z,17.51
2019-05-20T20:54:08.980Z,17.64
2019-05-20T20:56:40.582Z,17.48
2019-05-20T20:59:12.382Z,17.49
2019-05-20T21:01:44.212Z,17.61
2019-05-20T21:04:16.576Z,17.57
2019-05-20T21:06:48.654Z,17.50
2019-05-20T21:09:20.621Z,17.44
2019-05-20T21:11:52.508Z,17.42
2019-05-20T21:14:24.912Z,17.49
2019-05-20T21:16:57.112Z,17.54
2019-05-20T21:19:29.314Z,17.52
2019-05-20T21:22:01.259Z,17.51
2019-05-20T21:24:33.253Z,17.46
2019-05-20T21:27:05.346Z,17.41
2019-05-20T21:29:37.251Z,17.40
2019-05-20T21:32:09.183Z,17.45
2019-05-20T21:34:41.250Z,17.46
2019-05-20T21:37:13.789Z,17.39
2019-05-20T21:39:45.678Z,17.43
2019-05-20T21:42:17.223Z,17.49
2019-05-20T21:44:48.934Z,17.54
2019-05-20T21:47:21.252Z,17.52
2019-05-20T21:49:53.038Z,17.48
2019-05-20T21:52:25.402Z,17.39
2019-05-20T21:54:57.759Z,17.44
2019-05-20T21:57:29.033Z,17.42
2019-05-20T22:00:00.836Z,17.36
2019-05-20T22:02:34.452Z,17.48
2019-05-20T22:05:06.844Z,17.41
2019-05-20T22:07:38.487Z,17.32
2019-05-20T22:10:10.253Z,17.28
2019-05-20T22:12:42.513Z,17.32
2019-05-20T22:15:14.298Z,17.32
2019-05-20T22:17:46.524Z,17.25
2019-05-20T22:20:18.412Z,17.20
2019-05-20T22:23:09.399Z,17.14
2019-05-20T22:25:41.357Z,17.20
2019-05-20T22:28:13.100Z,17.18
2019-05-20T22:30:45.175Z,17.13
2019-05-20T22:33:17.135Z,17.11
2019-05-20T22:35:50.211Z,16.96
2019-05-20T22:38:22.439Z,16.92
2019-05-20T22:40:54.666Z,16.86
2019-05-20T22:43:26.800Z,16.77
2019-05-20T22:45:59.188Z,16.84
2019-05-20T22:48:31.171Z,16.91
2019-05-20T22:51:02.735Z,16.87
2019-05-20T22:53:34.970Z,16.89
2019-05-20T22:56:06.974Z,16.74
2019-05-20T22:58:44.996Z,16.83
2019-05-20T23:01:16.540Z,16.76
2019-05-20T23:03:56.001Z,16.76
2019-05-20T23:06:22.228Z,16.75
2019-05-20T23:08:54.442Z,16.81
2019-05-20T23:11:26.299Z,16.92
2019-05-20T23:13:58.409Z,16.95
2019-05-20T23:16:30.060Z,16.79
2019-05-20T23:19:01.804Z,16.85
2019-05-20T23:21:33.749Z,16.70
2019-05-20T23:24:05.727Z,16.76
2019-05-20T23:26:37.585Z,16.86
2019-05-20T23:29:09.139Z,16.82
2019-05-20T23:31:40.877Z,16.84
2019-05-20T23:34:13.384Z,16.72
2019-05-20T23:36:46.348Z,16.76
2019-05-20T23:39:17.871Z,16.76
2019-05-20T23:41:49.686Z,16.72
2019-05-20T23:44:21.792Z,16.69
2019-05-20T23:46:53.919Z,16.69
2019-05-20T23:49:25.993Z,16.66
2019-05-20T23:51:58.120Z,16.61
2019-05-20T23:54:30.255Z,16.68
2019-05-20T23:57:02.564Z,16.64
2019-05-20T23:59:34.844Z,16.66
